Time;durP1;ratioP1;P1;durP2;ratioP2;P2;SDS_P1;SDS_P2;PMS_P1;PMS_P2;Temp;Humidity;BMP_temperature;BMP_pressure;BME280_temperature;BME280_humidity;BME280_pressure;Samples;Min_cycle;Max_cycle;Signal;HPM_P1;HPM_P2
2021/03/06 00:00:04;;;;;;;21.27;16.07;;;;;;;;;;2096958;28;20667;-58
2021/03/06 00:01:04;;;;;;;17.93;15.83;;;;;;;;;;2090934;28;20245;-57
2021/03/06 00:02:05;;;;;;;18.17;14.60;;;;;;;;;;2096763;28;20544;-54
2021/03/06 00:03:05;;;;;;;17.13;13.93;;;;;;;;;;2098534;28;20171;-53
2021/03/06 00:04:05;;;;;;;18.93;15.67;;;;;;;;;;2097913;28;20256;-55
2021/03/06 00:05:06;;;;;;;17.23;14.17;;;;;;;;;;2099402;28;20236;-55
2021/03/06 00:06:06;;;;;;;19.73;14.77;;;;;;;;;;2097841;28;20186;-54
2021/03/06 00:07:07;;;;;;;17.17;14.13;;;;;;;;;;2098243;28;20431;-55
2021/03/06 00:08:07;;;;;;;19.10;14.17;;;;;;;;;;2097854;28;20273;-55
2021/03/06 00:09:07;;;;;;;18.70;14.43;;;;;;;;;;2090003;28;20595;-52
2021/03/06 00:10:12;;;;;;;16.40;13.67;;;;;;;;;;2098381;28;20239;-54
2021/03/06 00:11:12;;;;;;;16.40;13.07;;;;;;;;;;2098409;28;20241;-53
2021/03/06 00:12:13;;;;;;;19.23;11.77;;;;;;;;;;2097382;28;20919;-55
2021/03/06 00:13:13;;;;;;;19.73;14.73;;;;;;;;;;2098036;28;20199;-54
2021/03/06 00:14:13;;;;;;;25.40;13.83;;;;;;;;;;2097493;28;20753;-56
2021/03/06 00:15:15;;;;;;;17.23;12.43;;;;;;;;;;2097792;28;20613;-54
2021/03/06 00:16:15;;;;;;;13.60;11.23;;;;;;;;;;2098159;28;20249;-55
2021/03/06 00:17:15;;;;;;;13.70;12.30;;;;;;;;;;2096839;28;20765;-55
2021/03/06 00:18:15;;;;;;;20.63;13.47;;;;;;;;;;2095452;28;20182;-55
2021/03/06 00:19:16;;;;;;;15.60;13.17;;;;;;;;;;2097901;28;20714;-55
2021/03/06 00:20:16;;;;;;;15.03;13.43;;;;;;;;;;2098248;28;20565;-52
2021/03/06 00:21:17;;;;;;;19.60;12.60;;;;;;;;;;2098673;28;20168;-53
2021/03/06 00:22:17;;;;;;;16.10;12.33;;;;;;;;;;2097711;28;20170;-57
2021/03/06 00:23:18;;;;;;;14.73;11.50;;;;;;;;;;2097625;28;20179;-56
2021/03/06 00:24:18;;;;;;;14.67;12.13;;;;;;;;;;2098300;28;20183;-56
2021/03/06 00:25:18;;;;;;;23.23;12.43;;;;;;;;;;2097781;28;20171;-55
2021/03/06 00:26:19;;;;;;;15.10;12.30;;;;;;;;;;2096970;28;20934;-55
2021/03/06 00:27:19;;;;;;;17.30;14.93;;;;;;;;;;2097837;28;20542;-53
2021/03/06 00:28:19;;;;;;;17.40;13.90;;;;;;;;;;2097531;28;20193;-55
2021/03/06 00:29:20;;;;;;;14.93;13.33;;;;;;;;;;2097034;28;20213;-54
2021/03/06 00:30:20;;;;;;;16.93;14.83;;;;;;;;;;2097641;28;20167;-55
2021/03/06 00:31:21;;;;;;;20.50;15.33;;;;;;;;;;2097125;28;20516;-52
2021/03/06 00:32:21;;;;;;;16.13;13.40;;;;;;;;;;2098901;28;20698;-55
2021/03/06 00:33:21;;;;;;;18.10;13.40;;;;;;;;;;2098729;28;20198;-54
2021/03/06 00:34:22;;;;;;;16.33;13.60;;;;;;;;;;2098266;28;20197;-56
2021/03/06 00:35:22;;;;;;;16.57;13.30;;;;;;;;;;2097545;28;20258;-56
2021/03/06 00:36:22;;;;;;;13.73;12.30;;;;;;;;;;2098861;28;20170;-55
2021/03/06 00:37:22;;;;;;;19.57;13.90;;;;;;;;;;2097228;28;20167;-57
2021/03/06 00:38:22;;;;;;;18.93;14.43;;;;;;;;;;2097365;28;20195;-54
2021/03/06 00:39:23;;;;;;;19.57;15.07;;;;;;;;;;2098123;28;20171;-55
2021/03/06 00:40:23;;;;;;;16.97;14.37;;;;;;;;;;2097518;28;20179;-52
2021/03/06 00:41:23;;;;;;;15.03;12.97;;;;;;;;;;2097708;28;20177;-56
2021/03/06 00:42:24;;;;;;;13.83;12.43;;;;;;;;;;2097079;28;20229;-54
2021/03/06 00:43:24;;;;;;;15.57;13.27;;;;;;;;;;2097119;28;20169;-54
2021/03/06 00:44:24;;;;;;;17.37;11.67;;;;;;;;;;2097796;28;20198;-54
2021/03/06 00:45:24;;;;;;;17.27;13.40;;;;;;;;;;2097788;28;20278;-54
2021/03/06 00:46:25;;;;;;;19.93;15.00;;;;;;;;;;2098014;28;20522;-54
2021/03/06 00:47:25;;;;;;;17.33;14.07;;;;;;;;;;2097746;28;20225;-53
2021/03/06 00:48:26;;;;;;;19.70;14.20;;;;;;;;;;2096869;28;20194;-53
2021/03/06 00:49:28;;;;;;;17.80;12.87;;;;;;;;;;2089722;28;20231;-54
2021/03/06 00:50:31;;;;;;;18.47;12.13;;;;;;;;;;2089396;28;20195;-52
2021/03/06 00:51:33;;;;;;;15.83;12.07;;;;;;;;;;2089892;28;20443;-53
2021/03/06 00:52:34;;;;;;;14.90;11.97;;;;;;;;;;2089063;28;20420;-53
2021/03/06 00:53:35;;;;;;;16.93;13.77;;;;;;;;;;2089456;28;20175;-54
2021/03/06 00:54:35;;;;;;;15.93;12.10;;;;;;;;;;2096878;28;20171;-56
2021/03/06 00:55:35;;;;;;;14.53;12.63;;;;;;;;;;2096913;28;20257;-56
2021/03/06 00:56:36;;;;;;;18.13;14.27;;;;;;;;;;2089016;28;20278;-54
2021/03/06 00:57:36;;;;;;;14.67;13.13;;;;;;;;;;2080652;28;20188;-54
2021/03/06 00:58:37;;;;;;;15.40;13.10;;;;;;;;;;2078229;28;20171;-52
2021/03/06 00:59:37;;;;;;;21.80;15.37;;;;;;;;;;2097220;28;20249;-55
2021/03/06 01:00:38;;;;;;;19.70;14.33;;;;;;;;;;2097148;28;20190;-55
2021/03/06 01:01:41;;;;;;;18.10;13.83;;;;;;;;;;2097479;28;20678;-53
2021/03/06 01:02:41;;;;;;;16.90;14.03;;;;;;;;;;2097238;28;20449;-54
2021/03/06 01:03:41;;;;;;;21.80;15.50;;;;;;;;;;2089448;28;20172;-52
2021/03/06 01:04:41;;;;;;;19.67;15.77;;;;;;;;;;2094757;28;20191;-55
2021/03/06 01:05:42;;;;;;;23.53;16.93;;;;;;;;;;2091799;28;20206;-54
2021/03/06 01:06:42;;;;;;;20.70;15.63;;;;;;;;;;2088613;28;20683;-56
2021/03/06 01:07:43;;;;;;;20.80;16.53;;;;;;;;;;2096299;28;20301;-52
2021/03/06 01:08:43;;;;;;;26.70;18.30;;;;;;;;;;2098026;28;20182;-53
2021/03/06 01:09:44;;;;;;;22.00;16.63;;;;;;;;;;2097353;28;20702;-53
2021/03/06 01:10:44;;;;;;;23.00;17.57;;;;;;;;;;2096787;28;20556;-54
2021/03/06 01:11:45;;;;;;;22.93;17.13;;;;;;;;;;2088264;28;20233;-52
2021/03/06 01:12:45;;;;;;;26.13;17.40;;;;;;;;;;2097559;28;20176;-57
2021/03/06 01:13:45;;;;;;;21.13;17.67;;;;;;;;;;2097027;28;20186;-55
2021/03/06 01:14:45;;;;;;;23.17;18.53;;;;;;;;;;2097670;28;20208;-56
2021/03/06 01:15:46;;;;;;;19.47;17.13;;;;;;;;;;2096977;28;20674;-57
2021/03/06 01:16:46;;;;;;;19.37;17.33;;;;;;;;;;2095723;28;20320;-55
2021/03/06 01:17:46;;;;;;;20.23;17.30;;;;;;;;;;2089644;28;20230;-57
2021/03/06 01:18:47;;;;;;;17.80;15.90;;;;;;;;;;2095372;28;20217;-57
2021/03/06 01:19:48;;;;;;;19.87;17.03;;;;;;;;;;2096362;28;20259;-53
2021/03/06 01:20:48;;;;;;;21.23;16.13;;;;;;;;;;2097698;28;20175;-53
2021/03/06 01:21:48;;;;;;;21.87;17.57;;;;;;;;;;2097274;28;20183;-53
2021/03/06 01:22:49;;;;;;;23.70;17.37;;;;;;;;;;2097578;28;20198;-52
2021/03/06 01:23:49;;;;;;;21.20;16.73;;;;;;;;;;2096313;28;20252;-54
2021/03/06 01:24:49;;;;;;;21.63;17.13;;;;;;;;;;2092520;28;20186;-55
2021/03/06 01:25:49;;;;;;;25.90;16.57;;;;;;;;;;2095986;28;20541;-53
2021/03/06 01:26:50;;;;;;;19.00;16.37;;;;;;;;;;2097344;28;20769;-55
2021/03/06 01:27:50;;;;;;;17.27;15.33;;;;;;;;;;2093546;28;20264;-54
2021/03/06 01:28:50;;;;;;;20.70;15.40;;;;;;;;;;2099976;28;20553;-53
2021/03/06 01:29:50;;;;;;;21.33;16.20;;;;;;;;;;2101810;28;20307;-55
2021/03/06 01:30:51;;;;;;;20.73;16.53;;;;;;;;;;2095753;28;20194;-55
2021/03/06 01:31:51;;;;;;;21.30;15.90;;;;;;;;;;2090579;28;20232;-56
2021/03/06 01:32:51;;;;;;;17.50;15.57;;;;;;;;;;2097429;28;20203;-52
2021/03/06 01:33:52;;;;;;;22.17;17.50;;;;;;;;;;2100260;28;20170;-55
2021/03/06 01:34:52;;;;;;;22.87;18.87;;;;;;;;;;2101823;28;20224;-55
2021/03/06 01:35:52;;;;;;;27.23;19.60;;;;;;;;;;2101090;28;20187;-55
2021/03/06 01:36:53;;;;;;;26.63;20.27;;;;;;;;;;2099050;28;20167;-52
2021/03/06 01:37:54;;;;;;;24.30;19.17;;;;;;;;;;2096890;28;20207;-53
2021/03/06 01:38:54;;;;;;;22.77;18.17;;;;;;;;;;2096952;28;20407;-55
2021/03/06 01:39:55;;;;;;;22.13;17.90;;;;;;;;;;2096321;28;20171;-52
2021/03/06 01:40:55;;;;;;;28.73;18.37;;;;;;;;;;2098211;28;20674;-52
2021/03/06 01:41:55;;;;;;;24.50;17.80;;;;;;;;;;2097444;28;20175;-51
2021/03/06 01:42:56;;;;;;;24.27;19.20;;;;;;;;;;2090446;28;20203;-53
2021/03/06 01:43:56;;;;;;;19.43;17.30;;;;;;;;;;2097525;28;20182;-55
2021/03/06 01:44:56;;;;;;;22.23;16.33;;;;;;;;;;2097301;28;20167;-52
2021/03/06 01:45:57;;;;;;;27.47;18.10;;;;;;;;;;2097224;28;20651;-52
2021/03/06 01:46:58;;;;;;;20.37;17.27;;;;;;;;;;2097420;28;20175;-54
2021/03/06 01:47:59;;;;;;;24.97;18.10;;;;;;;;;;2089328;28;20203;-53
2021/03/06 01:49:01;;;;;;;21.13;16.37;;;;;;;;;;2091693;28;20431;-53
2021/03/06 01:50:03;;;;;;;20.77;16.90;;;;;;;;;;2097574;28;20451;-55
2021/03/06 01:51:03;;;;;;;23.77;19.40;;;;;;;;;;2096341;28;20430;-54
2021/03/06 01:52:04;;;;;;;23.43;18.83;;;;;;;;;;2097358;28;20434;-56
2021/03/06 01:53:06;;;;;;;26.03;18.97;;;;;;;;;;2096576;28;20202;-53
2021/03/06 01:54:06;;;;;;;22.37;18.30;;;;;;;;;;2097326;28;20424;-58
2021/03/06 01:55:07;;;;;;;27.97;18.97;;;;;;;;;;2097665;28;20421;-55
2021/03/06 01:56:07;;;;;;;21.47;17.27;;;;;;;;;;2098621;28;20240;-57
2021/03/06 01:57:07;;;;;;;22.60;17.43;;;;;;;;;;2096017;28;20675;-53
2021/03/06 01:58:08;;;;;;;21.07;17.30;;;;;;;;;;2098662;28;20201;-54
2021/03/06 01:59:09;;;;;;;24.93;17.80;;;;;;;;;;2098694;28;20254;-53
2021/03/06 02:00:09;;;;;;;22.13;18.07;;;;;;;;;;2098755;28;20696;-54
2021/03/06 02:01:12;;;;;;;27.13;18.37;;;;;;;;;;2099561;28;20175;-54
2021/03/06 02:02:12;;;;;;;23.87;18.13;;;;;;;;;;2095412;28;20456;-53
2021/03/06 02:03:13;;;;;;;22.07;18.90;;;;;;;;;;2099444;28;20170;-53
2021/03/06 02:04:13;;;;;;;22.17;17.27;;;;;;;;;;2098240;28;20182;-55
2021/03/06 02:05:14;;;;;;;24.50;17.57;;;;;;;;;;2098109;28;20667;-55
2021/03/06 02:06:15;;;;;;;20.23;17.50;;;;;;;;;;2097847;28;20185;-56
2021/03/06 02:07:15;;;;;;;30.43;18.10;;;;;;;;;;2101754;28;20181;-53
2021/03/06 02:08:15;;;;;;;25.37;18.00;;;;;;;;;;2099676;28;20198;-56
2021/03/06 02:09:15;;;;;;;22.17;17.57;;;;;;;;;;2101446;28;20167;-53
2021/03/06 02:10:17;;;;;;;20.60;17.10;;;;;;;;;;2095586;28;20608;-56
2021/03/06 02:11:24;;;;;;;25.13;19.10;;;;;;;;;;2101502;28;20163;-56
2021/03/06 02:12:31;;;;;;;24.60;18.53;;;;;;;;;;2098472;28;20422;-56
2021/03/06 02:13:34;;;;;;;22.73;18.00;;;;;;;;;;2095388;28;20960;-53
2021/03/06 02:14:48;;;;;;;22.27;17.00;;;;;;;;;;2098246;28;20415;-54
2021/03/06 02:15:57;;;;;;;25.77;17.87;;;;;;;;;;2099310;28;21020;-56
2021/03/06 02:17:06;;;;;;;26.43;17.60;;;;;;;;;;2097761;28;20825;-56
2021/03/06 02:18:09;;;;;;;20.70;17.30;;;;;;;;;;2097229;28;20461;-57
2021/03/06 02:19:28;;;;;;;23.43;18.30;;;;;;;;;;2099702;28;20447;-55
2021/03/06 02:20:39;;;;;;;24.00;16.60;;;;;;;;;;2099289;28;20419;-58
2021/03/06 02:21:42;;;;;;;20.97;16.83;;;;;;;;;;2100178;28;20446;-57
2021/03/06 02:23:01;;;;;;;20.53;17.27;;;;;;;;;;2100960;28;20410;-56
2021/03/06 02:24:20;;;;;;;20.90;17.20;;;;;;;;;;2096052;28;20478;-56
2021/03/06 02:25:23;;;;;;;19.23;15.90;;;;;;;;;;2097647;28;20905;-58
2021/03/06 02:26:35;;;;;;;20.00;16.37;;;;;;;;;;2099317;28;20448;-57
2021/03/06 02:27:52;;;;;;;20.53;16.03;;;;;;;;;;2099964;28;20428;-58
2021/03/06 02:29:06;;;;;;;20.00;16.33;;;;;;;;;;2103530;28;20392;-57
2021/03/06 02:30:11;;;;;;;19.27;17.17;;;;;;;;;;2096203;28;20439;-57
2021/03/06 02:31:12;;;;;;;18.67;16.27;;;;;;;;;;2102526;28;20425;-58
2021/03/06 02:32:25;;;;;;;20.43;17.90;;;;;;;;;;2101947;28;20426;-57
2021/03/06 02:33:29;;;;;;;20.90;16.90;;;;;;;;;;2102777;28;20771;-55
2021/03/06 02:34:30;;;;;;;24.33;18.80;;;;;;;;;;2102593;28;20424;-56
2021/03/06 02:35:32;;;;;;;24.50;18.97;;;;;;;;;;2103415;28;20433;-56
2021/03/06 02:36:33;;;;;;;21.63;16.77;;;;;;;;;;2103132;28;20435;-57
2021/03/06 02:37:36;;;;;;;22.10;17.47;;;;;;;;;;2102707;28;20439;-56
2021/03/06 02:38:38;;;;;;;19.67;16.17;;;;;;;;;;2103060;28;20410;-56
2021/03/06 02:39:42;;;;;;;20.03;16.30;;;;;;;;;;2094716;28;20440;-56
2021/03/06 02:40:43;;;;;;;21.67;16.37;;;;;;;;;;2099327;28;20438;-58
2021/03/06 02:41:45;;;;;;;25.13;16.87;;;;;;;;;;2099736;28;20514;-53
2021/03/06 02:42:45;;;;;;;24.20;17.30;;;;;;;;;;2096992;28;20436;-52
2021/03/06 02:43:46;;;;;;;19.63;16.80;;;;;;;;;;2091996;28;20939;-54
2021/03/06 02:44:48;;;;;;;21.17;16.97;;;;;;;;;;2097576;28;20189;-54
2021/03/06 02:45:49;;;;;;;21.13;16.30;;;;;;;;;;2096667;28;20171;-54
2021/03/06 02:46:49;;;;;;;19.63;16.57;;;;;;;;;;2097863;28;20443;-51
2021/03/06 02:47:50;;;;;;;20.50;16.40;;;;;;;;;;2096858;28;20252;-50
2021/03/06 02:48:52;;;;;;;22.27;16.50;;;;;;;;;;2096879;28;20235;-54
2021/03/06 02:49:53;;;;;;;21.50;16.23;;;;;;;;;;2096935;28;20209;-55
2021/03/06 02:50:54;;;;;;;21.97;16.33;;;;;;;;;;2097714;28;20411;-52
2021/03/06 02:51:54;;;;;;;23.20;18.10;;;;;;;;;;2096612;28;20445;-54
2021/03/06 02:52:54;;;;;;;21.43;17.23;;;;;;;;;;2097429;28;20254;-55
2021/03/06 02:53:55;;;;;;;21.90;17.10;;;;;;;;;;2097174;28;20175;-56
2021/03/06 02:54:55;;;;;;;21.50;16.80;;;;;;;;;;2096193;28;20173;-52
2021/03/06 02:55:55;;;;;;;20.90;17.27;;;;;;;;;;2097488;28;20186;-52
2021/03/06 02:56:56;;;;;;;20.87;17.23;;;;;;;;;;2096364;28;20273;-54
2021/03/06 02:58:08;;;;;;;21.47;16.33;;;;;;;;;;2096824;28;20686;-53
2021/03/06 02:59:17;;;;;;;19.07;16.27;;;;;;;;;;2091298;28;20167;-51
2021/03/06 03:00:22;;;;;;;21.40;18.23;;;;;;;;;;2095443;28;20431;-55
2021/03/06 03:01:25;;;;;;;21.37;17.63;;;;;;;;;;2096761;28;20404;-52
2021/03/06 03:02:44;;;;;;;20.10;17.30;;;;;;;;;;2097714;28;20966;-53
2021/03/06 03:03:53;;;;;;;21.07;15.93;;;;;;;;;;2098794;28;20426;-56
2021/03/06 03:05:00;;;;;;;20.07;17.53;;;;;;;;;;2098983;28;20976;-55
2021/03/06 03:06:01;;;;;;;21.37;17.50;;;;;;;;;;2094294;28;20430;-56
2021/03/06 03:07:07;;;;;;;19.80;17.33;;;;;;;;;;2098038;28;20422;-56
2021/03/06 03:08:18;;;;;;;23.07;17.00;;;;;;;;;;2096689;28;20253;-57
2021/03/06 03:09:27;;;;;;;22.87;16.13;;;;;;;;;;2097936;28;20927;-54
2021/03/06 03:10:29;;;;;;;21.60;16.80;;;;;;;;;;2093453;28;21429;-54
2021/03/06 03:11:31;;;;;;;20.33;16.23;;;;;;;;;;2088550;28;20655;-56
2021/03/06 03:12:34;;;;;;;18.67;16.73;;;;;;;;;;2095166;28;20888;-54
2021/03/06 03:13:37;;;;;;;19.30;16.57;;;;;;;;;;2094784;28;20426;-55
2021/03/06 03:14:41;;;;;;;20.33;17.77;;;;;;;;;;2098085;28;20991;-55
2021/03/06 03:15:44;;;;;;;18.63;16.17;;;;;;;;;;2098685;28;20410;-56
2021/03/06 03:17:10;;;;;;;23.07;16.93;;;;;;;;;;2097252;28;20426;-56
2021/03/06 03:18:17;;;;;;;19.80;15.73;;;;;;;;;;2090586;28;20928;-56
2021/03/06 03:19:41;;;;;;;20.33;16.70;;;;;;;;;;2098182;28;20438;-56
2021/03/06 03:20:47;;;;;;;19.67;16.33;;;;;;;;;;2092738;28;20471;-57
2021/03/06 03:21:50;;;;;;;18.70;16.17;;;;;;;;;;2095867;28;20431;-58
2021/03/06 03:22:53;;;;;;;21.67;16.00;;;;;;;;;;2098560;28;20431;-56
2021/03/06 03:24:10;;;;;;;20.07;15.83;;;;;;;;;;2097769;28;20428;-57
2021/03/06 03:25:12;;;;;;;17.27;15.40;;;;;;;;;;2092715;28;20419;-56
2021/03/06 03:26:14;;;;;;;20.03;16.47;;;;;;;;;;2099722;28;20412;-57
2021/03/06 03:27:14;;;;;;;19.03;16.47;;;;;;;;;;2100278;28;20438;-55
2021/03/06 03:28:15;;;;;;;19.77;15.70;;;;;;;;;;2099249;28;20432;-57
2021/03/06 03:29:16;;;;;;;19.13;16.13;;;;;;;;;;2100531;28;20220;-57
2021/03/06 03:30:18;;;;;;;17.90;16.13;;;;;;;;;;2092581;28;20203;-57
2021/03/06 03:31:19;;;;;;;19.87;16.20;;;;;;;;;;2092035;28;20405;-56
2021/03/06 03:32:22;;;;;;;17.90;15.97;;;;;;;;;;2100582;28;20427;-55
2021/03/06 03:33:22;;;;;;;18.03;15.33;;;;;;;;;;2101505;28;20242;-57
2021/03/06 03:34:23;;;;;;;20.90;16.33;;;;;;;;;;2101722;28;20399;-55
2021/03/06 03:35:24;;;;;;;18.97;14.73;;;;;;;;;;2101666;28;20166;-59
2021/03/06 03:36:25;;;;;;;18.63;15.03;;;;;;;;;;2101517;28;20170;-56
2021/03/06 03:37:25;;;;;;;17.57;15.70;;;;;;;;;;2098231;28;20490;-55
2021/03/06 03:38:26;;;;;;;19.20;15.17;;;;;;;;;;2101178;28;20175;-54
2021/03/06 03:39:26;;;;;;;18.20;15.83;;;;;;;;;;2100566;28;20202;-57
2021/03/06 03:40:26;;;;;;;19.67;15.73;;;;;;;;;;2096158;28;20201;-58
2021/03/06 03:41:27;;;;;;;17.43;15.57;;;;;;;;;;2101495;28;20216;-59
2021/03/06 03:42:27;;;;;;;20.90;16.27;;;;;;;;;;2103060;28;20170;-56
2021/03/06 03:43:27;;;;;;;21.27;16.50;;;;;;;;;;2103461;28;20215;-55
2021/03/06 03:44:28;;;;;;;18.93;15.50;;;;;;;;;;2101681;28;20171;-57
2021/03/06 03:45:29;;;;;;;18.43;14.93;;;;;;;;;;2099353;28;20206;-53
2021/03/06 03:46:30;;;;;;;23.10;16.30;;;;;;;;;;2098367;28;20182;-54
2021/03/06 03:47:30;;;;;;;19.60;15.43;;;;;;;;;;2094301;28;20496;-53
2021/03/06 03:48:30;;;;;;;17.83;16.00;;;;;;;;;;2096878;28;20197;-55
2021/03/06 03:49:32;;;;;;;17.07;14.57;;;;;;;;;;2097666;28;20251;-55
2021/03/06 03:50:32;;;;;;;18.23;14.90;;;;;;;;;;2097539;28;20191;-55
2021/03/06 03:51:33;;;;;;;17.17;15.03;;;;;;;;;;2097365;28;20407;-55
2021/03/06 03:52:37;;;;;;;16.90;15.13;;;;;;;;;;2096730;28;20167;-54
2021/03/06 03:53:38;;;;;;;18.87;14.90;;;;;;;;;;2094701;28;20182;-56
2021/03/06 03:54:39;;;;;;;21.37;16.83;;;;;;;;;;2096227;28;20470;-56
2021/03/06 03:55:40;;;;;;;19.40;15.67;;;;;;;;;;2093683;28;20377;-55
2021/03/06 03:56:40;;;;;;;20.60;15.90;;;;;;;;;;2096800;28;20689;-54
2021/03/06 03:57:43;;;;;;;17.97;15.77;;;;;;;;;;2097261;28;20199;-54
2021/03/06 03:58:47;;;;;;;19.63;16.87;;;;;;;;;;2096486;28;20183;-55
2021/03/06 03:59:47;;;;;;;24.90;16.80;;;;;;;;;;2098157;28;20465;-53
2021/03/06 04:00:54;;;;;;;21.40;17.93;;;;;;;;;;2097643;28;21126;-55
2021/03/06 04:01:54;;;;;;;21.93;17.97;;;;;;;;;;2098357;28;20216;-53
2021/03/06 04:02:59;;;;;;;24.40;19.10;;;;;;;;;;2094733;28;20440;-52
2021/03/06 04:03:59;;;;;;;23.20;18.13;;;;;;;;;;2093844;28;20239;-54
2021/03/06 04:05:00;;;;;;;24.73;18.37;;;;;;;;;;2098031;28;20416;-55
2021/03/06 04:06:01;;;;;;;21.40;18.97;;;;;;;;;;2094447;28;20183;-53
2021/03/06 04:07:01;;;;;;;21.67;18.23;;;;;;;;;;2095781;28;20246;-53
2021/03/06 04:08:02;;;;;;;21.17;18.13;;;;;;;;;;2096639;28;20459;-52
2021/03/06 04:09:03;;;;;;;22.10;18.50;;;;;;;;;;2097718;28;20167;-55
2021/03/06 04:10:03;;;;;;;21.77;18.23;;;;;;;;;;2094727;28;20301;-52
2021/03/06 04:11:03;;;;;;;20.37;18.17;;;;;;;;;;2097676;28;20175;-56
2021/03/06 04:12:04;;;;;;;21.47;17.80;;;;;;;;;;2097992;28;20175;-56
2021/03/06 04:13:06;;;;;;;22.30;16.80;;;;;;;;;;2096632;28;20182;-55
2021/03/06 04:14:06;;;;;;;20.03;15.60;;;;;;;;;;2090073;28;20202;-52
2021/03/06 04:15:08;;;;;;;19.80;16.47;;;;;;;;;;2090708;28;20408;-55
2021/03/06 04:16:08;;;;;;;17.97;16.07;;;;;;;;;;2100595;28;20658;-59
2021/03/06 04:17:09;;;;;;;20.90;16.87;;;;;;;;;;2100834;28;20403;-56
2021/03/06 04:18:09;;;;;;;22.73;15.73;;;;;;;;;;2100875;28;20183;-55
2021/03/06 04:19:09;;;;;;;17.50;15.80;;;;;;;;;;2100881;28;20190;-57
2021/03/06 04:20:11;;;;;;;19.13;14.93;;;;;;;;;;2100813;28;20182;-56
2021/03/06 04:21:11;;;;;;;18.13;15.50;;;;;;;;;;2100637;28;20635;-54
2021/03/06 04:22:12;;;;;;;17.43;14.70;;;;;;;;;;2098661;28;20395;-52
2021/03/06 04:23:12;;;;;;;17.37;15.33;;;;;;;;;;2098687;28;20248;-53
2021/03/06 04:24:12;;;;;;;16.20;14.50;;;;;;;;;;2098744;28;20163;-55
2021/03/06 04:25:13;;;;;;;17.37;14.73;;;;;;;;;;2098025;28;20194;-55
2021/03/06 04:26:13;;;;;;;19.03;15.10;;;;;;;;;;2095809;28;20175;-54
2021/03/06 04:27:13;;;;;;;16.43;14.67;;;;;;;;;;2098593;28;20183;-54
2021/03/06 04:28:13;;;;;;;16.47;13.40;;;;;;;;;;2098691;28;20258;-55
2021/03/06 04:29:14;;;;;;;15.97;13.97;;;;;;;;;;2096910;28;20171;-52
2021/03/06 04:30:14;;;;;;;18.73;15.23;;;;;;;;;;2095767;28;20184;-55
2021/03/06 04:31:14;;;;;;;18.47;16.20;;;;;;;;;;2100860;28;20171;-54
2021/03/06 04:32:15;;;;;;;19.03;15.50;;;;;;;;;;2100202;28;20643;-54
2021/03/06 04:33:15;;;;;;;18.30;14.57;;;;;;;;;;2099593;28;20644;-52
2021/03/06 04:34:15;;;;;;;20.97;16.23;;;;;;;;;;2099520;28;20182;-54
2021/03/06 04:35:16;;;;;;;19.50;14.97;;;;;;;;;;2099902;28;20276;-52
2021/03/06 04:36:16;;;;;;;18.57;14.93;;;;;;;;;;2090563;28;20182;-53
2021/03/06 04:37:16;;;;;;;17.10;14.80;;;;;;;;;;2095755;28;20186;-53
2021/03/06 04:38:17;;;;;;;18.17;15.40;;;;;;;;;;2094048;28;20172;-56
2021/03/06 04:39:17;;;;;;;18.43;14.53;;;;;;;;;;2093322;28;20680;-57
2021/03/06 04:40:17;;;;;;;19.70;14.77;;;;;;;;;;2095564;28;20198;-52
2021/03/06 04:41:17;;;;;;;16.93;14.60;;;;;;;;;;2094405;28;20179;-52
2021/03/06 04:42:18;;;;;;;16.30;14.60;;;;;;;;;;2095190;28;20248;-55
2021/03/06 04:43:18;;;;;;;18.97;14.30;;;;;;;;;;2091013;28;20181;-54
2021/03/06 04:44:19;;;;;;;17.50;13.77;;;;;;;;;;2095968;28;20198;-55
2021/03/06 04:45:19;;;;;;;17.80;14.60;;;;;;;;;;2096880;28;20194;-52
2021/03/06 04:46:21;;;;;;;16.77;15.07;;;;;;;;;;2094699;28;20389;-56
2021/03/06 04:47:21;;;;;;;16.10;14.40;;;;;;;;;;2097174;28;20179;-56
2021/03/06 04:48:21;;;;;;;15.90;14.07;;;;;;;;;;2094993;28;20751;-55
2021/03/06 04:49:21;;;;;;;18.83;14.10;;;;;;;;;;2093723;28;20237;-57
2021/03/06 04:50:22;;;;;;;15.37;13.77;;;;;;;;;;2096495;28;20170;-54
2021/03/06 04:51:22;;;;;;;17.30;14.27;;;;;;;;;;2091371;28;20631;-56
2021/03/06 04:52:22;;;;;;;14.87;13.40;;;;;;;;;;2093817;28;20251;-54
2021/03/06 04:53:22;;;;;;;17.07;13.03;;;;;;;;;;2094005;28;20172;-52
2021/03/06 04:54:23;;;;;;;14.37;12.67;;;;;;;;;;2098875;28;20655;-53
2021/03/06 04:55:23;;;;;;;15.23;13.10;;;;;;;;;;2096635;28;20193;-55
2021/03/06 04:56:23;;;;;;;18.77;13.07;;;;;;;;;;2092243;28;20198;-52
2021/03/06 04:57:25;;;;;;;17.80;13.17;;;;;;;;;;2093343;28;20605;-57
2021/03/06 04:58:25;;;;;;;17.40;12.23;;;;;;;;;;2093196;28;20183;-53
2021/03/06 04:59:25;;;;;;;18.53;13.03;;;;;;;;;;2095312;28;20408;-54
2021/03/06 05:00:26;;;;;;;13.90;12.47;;;;;;;;;;2096990;28;20561;-51
2021/03/06 05:01:26;;;;;;;18.70;13.33;;;;;;;;;;2095965;28;20187;-55
2021/03/06 05:02:26;;;;;;;14.03;12.33;;;;;;;;;;2093760;28;20176;-55
2021/03/06 05:03:27;;;;;;;17.70;13.23;;;;;;;;;;2096183;28;20175;-54
2021/03/06 05:04:27;;;;;;;16.07;12.27;;;;;;;;;;2091938;28;20266;-54
2021/03/06 05:05:27;;;;;;;15.87;12.17;;;;;;;;;;2098011;28;20196;-54
2021/03/06 05:06:27;;;;;;;15.30;13.23;;;;;;;;;;2095240;28;20260;-53
2021/03/06 05:07:28;;;;;;;17.53;13.30;;;;;;;;;;2096381;28;20907;-52
2021/03/06 05:08:28;;;;;;;15.23;12.13;;;;;;;;;;2099853;22;20554;-53
2021/03/06 05:09:28;;;;;;;15.20;12.30;;;;;;;;;;2080258;28;20204;-54
2021/03/06 05:10:29;;;;;;;15.83;12.30;;;;;;;;;;2080707;28;20191;-56
2021/03/06 05:11:29;;;;;;;15.13;12.70;;;;;;;;;;2080281;28;20172;-53
2021/03/06 05:12:29;;;;;;;18.53;13.43;;;;;;;;;;2078906;28;20176;-51
2021/03/06 05:13:29;;;;;;;15.87;12.47;;;;;;;;;;2083481;28;20255;-51
2021/03/06 05:14:30;;;;;;;13.73;12.37;;;;;;;;;;2085141;28;20176;-52
2021/03/06 05:15:30;;;;;;;15.87;12.43;;;;;;;;;;2083680;28;20164;-53
2021/03/06 05:16:30;;;;;;;14.50;11.93;;;;;;;;;;2089300;28;20711;-53
2021/03/06 05:17:31;;;;;;;19.20;12.93;;;;;;;;;;2089404;28;20691;-56
2021/03/06 05:18:31;;;;;;;18.13;13.10;;;;;;;;;;2082532;28;20596;-53
2021/03/06 05:19:31;;;;;;;15.67;13.20;;;;;;;;;;2084402;28;20722;-56
2021/03/06 05:20:31;;;;;;;16.87;12.60;;;;;;;;;;2081210;28;20664;-56
2021/03/06 05:21:32;;;;;;;16.67;13.63;;;;;;;;;;2075442;28;20169;-54
2021/03/06 05:22:32;;;;;;;16.33;12.77;;;;;;;;;;2076900;28;20572;-57
2021/03/06 05:23:32;;;;;;;15.63;12.77;;;;;;;;;;2077649;28;20701;-53
2021/03/06 05:24:33;;;;;;;15.10;12.20;;;;;;;;;;2085778;28;20178;-56
2021/03/06 05:25:33;;;;;;;14.30;12.83;;;;;;;;;;2083845;28;20257;-55
2021/03/06 05:26:33;;;;;;;15.40;12.93;;;;;;;;;;2076749;28;20183;-54
2021/03/06 05:27:34;;;;;;;13.33;12.07;;;;;;;;;;2084313;28;20277;-55
2021/03/06 05:28:34;;;;;;;13.93;11.90;;;;;;;;;;2082630;28;20237;-56
2021/03/06 05:29:34;;;;;;;18.93;12.97;;;;;;;;;;2083336;28;20253;-57
2021/03/06 05:30:35;;;;;;;13.37;12.00;;;;;;;;;;2079423;28;22109;-57
2021/03/06 05:31:35;;;;;;;14.80;13.23;;;;;;;;;;2074315;28;20841;-58
2021/03/06 05:32:35;;;;;;;19.00;12.93;;;;;;;;;;2086807;28;20168;-57
2021/03/06 05:33:35;;;;;;;13.90;12.00;;;;;;;;;;2087869;28;20582;-54
2021/03/06 05:34:36;;;;;;;14.40;11.97;;;;;;;;;;2087720;28;20180;-54
2021/03/06 05:35:36;;;;;;;19.97;12.77;;;;;;;;;;2086899;28;20172;-55
2021/03/06 05:36:37;;;;;;;15.60;12.53;;;;;;;;;;2086335;28;20535;-55
2021/03/06 05:37:37;;;;;;;17.27;12.07;;;;;;;;;;2089056;28;20172;-60
2021/03/06 05:38:37;;;;;;;15.37;12.27;;;;;;;;;;2087263;28;20204;-60
2021/03/06 05:39:37;;;;;;;15.70;12.10;;;;;;;;;;2089719;28;20187;-59
2021/03/06 05:40:39;;;;;;;15.60;13.00;;;;;;;;;;2086530;28;20222;-60
2021/03/06 05:41:39;;;;;;;14.17;12.50;;;;;;;;;;2082816;28;20257;-59
2021/03/06 05:42:40;;;;;;;14.93;12.60;;;;;;;;;;2083374;28;20490;-60
2021/03/06 05:43:40;;;;;;;16.97;13.30;;;;;;;;;;2086260;28;20880;-58
2021/03/06 05:44:41;;;;;;;14.07;12.63;;;;;;;;;;2086538;28;20180;-56
2021/03/06 05:45:48;;;;;;;17.07;13.60;;;;;;;;;;2081703;28;20241;-56
2021/03/06 05:46:48;;;;;;;17.30;12.17;;;;;;;;;;2087845;28;20510;-58
2021/03/06 05:47:49;;;;;;;13.63;12.20;;;;;;;;;;2079959;28;20417;-59
2021/03/06 05:48:52;;;;;;;14.40;12.90;;;;;;;;;;2076575;28;20211;-56
2021/03/06 05:49:53;;;;;;;15.43;12.37;;;;;;;;;;2087803;28;20194;-58
2021/03/06 05:50:55;;;;;;;14.33;12.30;;;;;;;;;;2081636;28;20445;-60
2021/03/06 05:51:56;;;;;;;13.90;12.47;;;;;;;;;;2088518;28;20409;-59
2021/03/06 05:52:57;;;;;;;16.33;12.73;;;;;;;;;;2080661;28;20421;-57
2021/03/06 05:53:57;;;;;;;13.93;12.47;;;;;;;;;;2089298;28;20841;-59
2021/03/06 05:54:59;;;;;;;13.77;12.50;;;;;;;;;;2073889;28;20425;-55
2021/03/06 05:55:59;;;;;;;15.77;12.70;;;;;;;;;;2080890;28;20188;-57
2021/03/06 05:57:00;;;;;;;13.53;12.13;;;;;;;;;;2088144;28;20424;-53
2021/03/06 05:58:00;;;;;;;15.87;12.53;;;;;;;;;;2080829;28;20203;-56